sensor_id;sensor_type;location;lat;lon;timestamp;pressure;altitude;pressure_sealevel;temperature;humidity
68634;BME280;55625;47.072;22.192;2023-07-20T00:02:01;98990.25;;;21.89;82.01
68634;BME280;55625;47.072;22.192;2023-07-20T00:04:28;98995.56;;;21.85;81.76
68634;BME280;55625;47.072;22.192;2023-07-20T00:06:54;98992.44;;;21.83;81.80
68634;BME280;55625;47.072;22.192;2023-07-20T00:09:20;98988.66;;;21.75;81.97
68634;BME280;55625;47.072;22.192;2023-07-20T00:11:51;98977.94;;;21.70;82.33
68634;BME280;55625;47.072;22.192;2023-07-20T00:14:18;98984.81;;;21.67;82.22
68634;BME280;55625;47.072;22.192;2023-07-20T00:16:45;98988.03;;;21.63;82.42
68634;BME280;55625;47.072;22.192;2023-07-20T00:19:12;98985.13;;;21.63;82.74
68634;BME280;55625;47.072;22.192;2023-07-20T00:21:38;98988.56;;;21.62;82.46
68634;BME280;55625;47.072;22.192;2023-07-20T00:24:06;98983.91;;;21.59;82.87
68634;BME280;55625;47.072;22.192;2023-07-20T00:26:32;98981.25;;;21.61;82.67
68634;BME280;55625;47.072;22.192;2023-07-20T00:28:57;98971.00;;;21.60;82.71
68634;BME280;55625;47.072;22.192;2023-07-20T00:31:23;98977.13;;;21.56;83.19
68634;BME280;55625;47.072;22.192;2023-07-20T00:33:49;98980.78;;;21.57;83.56
68634;BME280;55625;47.072;22.192;2023-07-20T00:36:15;98977.19;;;21.51;83.28
68634;BME280;55625;47.072;22.192;2023-07-20T00:38:42;98972.34;;;21.40;83.66
68634;BME280;55625;47.072;22.192;2023-07-20T00:41:07;98969.56;;;21.34;84.05
68634;BME280;55625;47.072;22.192;2023-07-20T00:43:33;98965.66;;;21.32;83.82
68634;BME280;55625;47.072;22.192;2023-07-20T00:45:59;98973.13;;;21.22;84.67
68634;BME280;55625;47.072;22.192;2023-07-20T00:48:25;98960.38;;;21.12;85.50
68634;BME280;55625;47.072;22.192;2023-07-20T00:50:51;98967.34;;;21.03;86.55
68634;BME280;55625;47.072;22.192;2023-07-20T00:53:17;98967.88;;;21.01;86.57
68634;BME280;55625;47.072;22.192;2023-07-20T00:55:44;98967.88;;;21.01;87.22
68634;BME280;55625;47.072;22.192;2023-07-20T00:58:10;98952.22;;;20.97;87.47
68634;BME280;55625;47.072;22.192;2023-07-20T01:00:36;98956.72;;;20.92;88.04
68634;BME280;55625;47.072;22.192;2023-07-20T01:03:02;98948.84;;;20.93;87.96
68634;BME280;55625;47.072;22.192;2023-07-20T01:05:53;98959.16;;;20.88;88.32
68634;BME280;55625;47.072;22.192;2023-07-20T01:08:51;98972.09;;;20.82;89.13
68634;BME280;55625;47.072;22.192;2023-07-20T01:11:46;98969.97;;;20.82;89.39
68634;BME280;55625;47.072;22.192;2023-07-20T01:14:14;98956.84;;;20.81;88.82
68634;BME280;55625;47.072;22.192;2023-07-20T01:16:41;98952.19;;;20.78;89.51
68634;BME280;55625;47.072;22.192;2023-07-20T01:19:07;98957.78;;;20.70;89.79
68634;BME280;55625;47.072;22.192;2023-07-20T01:27:00;98953.66;;;20.66;90.99
68634;BME280;55625;47.072;22.192;2023-07-20T01:32:17;98953.25;;;20.56;91.85
68634;BME280;55625;47.072;22.192;2023-07-20T01:34:44;98950.41;;;20.51;92.46
68634;BME280;55625;47.072;22.192;2023-07-20T01:37:11;98953.81;;;20.49;92.13
68634;BME280;55625;47.072;22.192;2023-07-20T01:39:38;98947.13;;;20.41;92.49
68634;BME280;55625;47.072;22.192;2023-07-20T01:42:05;98938.03;;;20.31;93.01
68634;BME280;55625;47.072;22.192;2023-07-20T01:44:31;98948.59;;;20.23;93.56
68634;BME280;55625;47.072;22.192;2023-07-20T01:46:57;98949.66;;;20.20;93.58
68634;BME280;55625;47.072;22.192;2023-07-20T01:49:23;98948.88;;;20.20;93.28
68634;BME280;55625;47.072;22.192;2023-07-20T01:51:49;98949.13;;;20.22;93.03
68634;BME280;55625;47.072;22.192;2023-07-20T01:54:15;98949.41;;;20.18;93.07
68634;BME280;55625;47.072;22.192;2023-07-20T01:56:40;98945.75;;;20.17;92.87
68634;BME280;55625;47.072;22.192;2023-07-20T01:59:06;98938.78;;;20.07;93.69
68634;BME280;55625;47.072;22.192;2023-07-20T02:01:32;98938.00;;;20.07;94.01
68634;BME280;55625;47.072;22.192;2023-07-20T02:03:59;98933.09;;;20.02;94.09
68634;BME280;55625;47.072;22.192;2023-07-20T02:06:24;98937.88;;;19.94;94.78
68634;BME280;55625;47.072;22.192;2023-07-20T02:08:50;98930.31;;;19.91;94.94
68634;BME280;55625;47.072;22.192;2023-07-20T02:11:16;98939.47;;;19.89;95.00
68634;BME280;55625;47.072;22.192;2023-07-20T02:13:42;98949.44;;;19.88;94.70
68634;BME280;55625;47.072;22.192;2023-07-20T02:16:08;98952.31;;;19.88;94.68
68634;BME280;55625;47.072;22.192;2023-07-20T02:18:33;98954.94;;;19.86;94.96
68634;BME280;55625;47.072;22.192;2023-07-20T02:21:00;98949.69;;;19.90;94.43
68634;BME280;55625;47.072;22.192;2023-07-20T02:23:26;98952.38;;;19.82;95.12
68634;BME280;55625;47.072;22.192;2023-07-20T02:25:52;98948.94;;;19.84;94.64
68634;BME280;55625;47.072;22.192;2023-07-20T02:28:18;98953.97;;;19.78;95.06
68634;BME280;55625;47.072;22.192;2023-07-20T02:30:44;98955.09;;;19.69;96.20
68634;BME280;55625;47.072;22.192;2023-07-20T02:33:09;98960.66;;;19.62;97.06
68634;BME280;55625;47.072;22.192;2023-07-20T02:35:35;98972.91;;;19.68;96.57
68634;BME280;55625;47.072;22.192;2023-07-20T02:38:01;98971.84;;;19.71;96.32
68634;BME280;55625;47.072;22.192;2023-07-20T02:40:27;98969.44;;;19.75;95.79
68634;BME280;55625;47.072;22.192;2023-07-20T02:42:53;98978.75;;;19.87;95.39
68634;BME280;55625;47.072;22.192;2023-07-20T02:45:19;98985.81;;;19.91;94.85
68634;BME280;55625;47.072;22.192;2023-07-20T02:47:44;98992.38;;;19.92;94.85
68634;BME280;55625;47.072;22.192;2023-07-20T02:50:10;98997.34;;;19.91;94.87
68634;BME280;55625;47.072;22.192;2023-07-20T02:52:39;99004.66;;;19.92;94.70
68634;BME280;55625;47.072;22.192;2023-07-20T02:55:05;99002.81;;;19.95;94.58
68634;BME280;55625;47.072;22.192;2023-07-20T02:57:31;98999.94;;;19.95;94.70
68634;BME280;55625;47.072;22.192;2023-07-20T02:59:56;99002.03;;;19.94;94.47
68634;BME280;55625;47.072;22.192;2023-07-20T03:02:22;98997.34;;;19.91;94.51
68634;BME280;55625;47.072;22.192;2023-07-20T03:04:48;99011.22;;;19.93;94.64
68634;BME280;55625;47.072;22.192;2023-07-20T03:07:14;99008.56;;;19.95;94.57
68634;BME280;55625;47.072;22.192;2023-07-20T03:09:40;99013.25;;;19.98;94.31
68634;BME280;55625;47.072;22.192;2023-07-20T03:12:07;99016.69;;;19.96;94.21
68634;BME280;55625;47.072;22.192;2023-07-20T03:14:33;99012.78;;;19.94;94.41
68634;BME280;55625;47.072;22.192;2023-07-20T03:16:58;99015.13;;;19.95;94.64
68634;BME280;55625;47.072;22.192;2023-07-20T03:19:24;99025.56;;;19.98;94.12
68634;BME280;55625;47.072;22.192;2023-07-20T03:21:50;99025.06;;;19.94;94.41
68634;BME280;55625;47.072;22.192;2023-07-20T03:24:16;99018.00;;;19.95;94.68
68634;BME280;55625;47.072;22.192;2023-07-20T03:26:42;99021.13;;;19.97;94.43
68634;BME280;55625;47.072;22.192;2023-07-20T03:29:08;99021.94;;;19.92;94.91
68634;BME280;55625;47.072;22.192;2023-07-20T03:31:34;99022.69;;;19.98;94.48
68634;BME280;55625;47.072;22.192;2023-07-20T03:34:02;99031.81;;;20.02;94.77
68634;BME280;55625;47.072;22.192;2023-07-20T03:36:28;99038.06;;;20.06;95.21
68634;BME280;55625;47.072;22.192;2023-07-20T03:38:54;99044.00;;;20.14;95.55
68634;BME280;55625;47.072;22.192;2023-07-20T03:41:20;99044.22;;;20.22;95.49
68634;BME280;55625;47.072;22.192;2023-07-20T03:43:47;99035.28;;;20.25;94.63
68634;BME280;55625;47.072;22.192;2023-07-20T03:46:13;99031.03;;;20.32;93.97
68634;BME280;55625;47.072;22.192;2023-07-20T03:48:39;99046.69;;;20.42;93.34
68634;BME280;55625;47.072;22.192;2023-07-20T03:51:04;99046.34;;;20.51;92.62
68634;BME280;55625;47.072;22.192;2023-07-20T03:53:30;99043.41;;;20.57;92.44
68634;BME280;55625;47.072;22.192;2023-07-20T03:55:56;99038.91;;;20.61;92.24
68634;BME280;55625;47.072;22.192;2023-07-20T03:58:22;99046.16;;;20.68;92.16
68634;BME280;55625;47.072;22.192;2023-07-20T04:00:50;99043.16;;;20.79;91.60
68634;BME280;55625;47.072;22.192;2023-07-20T04:03:17;99050.69;;;20.88;91.83
68634;BME280;55625;47.072;22.192;2023-07-20T04:05:43;99056.06;;;20.97;91.00
68634;BME280;55625;47.072;22.192;2023-07-20T04:08:10;99049.69;;;21.04;91.07
68634;BME280;55625;47.072;22.192;2023-07-20T04:10:37;99040.69;;;21.13;90.92
68634;BME280;55625;47.072;22.192;2023-07-20T04:13:04;99042.94;;;21.20;89.74
68634;BME280;55625;47.072;22.192;2023-07-20T04:15:30;99052.25;;;21.32;89.79
68634;BME280;55625;47.072;22.192;2023-07-20T04:17:56;99049.28;;;21.37;89.43
68634;BME280;55625;47.072;22.192;2023-07-20T04:20:23;99050.25;;;21.46;90.01
68634;BME280;55625;47.072;22.192;2023-07-20T04:22:49;99042.75;;;21.56;89.56
68634;BME280;55625;47.072;22.192;2023-07-20T04:25:17;99035.78;;;21.64;89.46
68634;BME280;55625;47.072;22.192;2023-07-20T04:27:43;99031.97;;;21.75;88.87
68634;BME280;55625;47.072;22.192;2023-07-20T04:30:10;99034.69;;;21.86;88.17
68634;BME280;55625;47.072;22.192;2023-07-20T04:32:38;99027.63;;;22.00;88.26
68634;BME280;55625;47.072;22.192;2023-07-20T04:35:07;99026.38;;;22.15;86.87
68634;BME280;55625;47.072;22.192;2023-07-20T04:37:36;99037.75;;;22.26;86.55
68634;BME280;55625;47.072;22.192;2023-07-20T04:40:01;99036.00;;;22.36;85.72
68634;BME280;55625;47.072;22.192;2023-07-20T04:42:28;99034.47;;;22.48;85.67
68634;BME280;55625;47.072;22.192;2023-07-20T04:44:54;99043.69;;;22.60;84.16
68634;BME280;55625;47.072;22.192;2023-07-20T04:47:20;99048.06;;;22.67;83.83
68634;BME280;55625;47.072;22.192;2023-07-20T04:49:46;99052.97;;;22.72;84.23
68634;BME280;55625;47.072;22.192;2023-07-20T04:52:11;99041.19;;;22.83;83.82
68634;BME280;55625;47.072;22.192;2023-07-20T04:54:37;99044.97;;;22.91;83.56
68634;BME280;55625;47.072;22.192;2023-07-20T04:57:09;99048.22;;;23.01;83.57
68634;BME280;55625;47.072;22.192;2023-07-20T04:59:36;99044.97;;;23.17;82.86
68634;BME280;55625;47.072;22.192;2023-07-20T05:02:02;99050.34;;;23.27;83.04
68634;BME280;55625;47.072;22.192;2023-07-20T05:04:27;99048.97;;;23.41;82.62
68634;BME280;55625;47.072;22.192;2023-07-20T05:06:53;99052.31;;;23.58;82.04
68634;BME280;55625;47.072;22.192;2023-07-20T05:09:19;99052.91;;;23.77;82.00
68634;BME280;55625;47.072;22.192;2023-07-20T10:16:27;99119.94;;;29.87;57.37
68634;BME280;55625;47.072;22.192;2023-07-20T10:21:23;99115.22;;;30.36;54.47
68634;BME280;55625;47.072;22.192;2023-07-20T10:23:50;99120.66;;;30.67;54.42
68634;BME280;55625;47.072;22.192;2023-07-20T10:26:15;99111.06;;;30.93;54.01
68634;BME280;55625;47.072;22.192;2023-07-20T10:28:41;99116.88;;;31.30;52.38
68634;BME280;55625;47.072;22.192;2023-07-20T10:31:12;99113.69;;;31.55;51.04
68634;BME280;55625;47.072;22.192;2023-07-20T10:33:39;99109.50;;;31.48;50.21
68634;BME280;55625;47.072;22.192;2023-07-20T10:36:06;99113.81;;;31.28;52.19
68634;BME280;55625;47.072;22.192;2023-07-20T10:41:35;99109.50;;;31.48;52.12
68634;BME280;55625;47.072;22.192;2023-07-20T10:44:06;99100.56;;;31.75;52.34
68634;BME280;55625;47.072;22.192;2023-07-20T10:46:43;99098.69;;;31.50;51.11
68634;BME280;55625;47.072;22.192;2023-07-20T10:49:14;99092.69;;;31.58;50.87
68634;BME280;55625;47.072;22.192;2023-07-20T10:51:47;99078.47;;;31.35;51.27
68634;BME280;55625;47.072;22.192;2023-07-20T10:56:44;99083.13;;;30.92;52.43
68634;BME280;55625;47.072;22.192;2023-07-20T11:01:59;99076.91;;;31.44;53.03
68634;BME280;55625;47.072;22.192;2023-07-20T11:04:47;99069.81;;;31.28;52.36
68634;BME280;55625;47.072;22.192;2023-07-20T11:07:21;99071.38;;;31.58;52.09
68634;BME280;55625;47.072;22.192;2023-07-20T11:10:23;99074.13;;;32.04;50.72
68634;BME280;55625;47.072;22.192;2023-07-20T11:13:19;99054.69;;;31.79;49.50
68634;BME280;55625;47.072;22.192;2023-07-20T11:16:02;99059.16;;;31.32;50.71
68634;BME280;55625;47.072;22.192;2023-07-20T11:18:34;99049.75;;;30.68;51.36
68634;BME280;55625;47.072;22.192;2023-07-20T11:21:08;99054.16;;;31.06;53.03
68634;BME280;55625;47.072;22.192;2023-07-20T11:23:38;99050.22;;;31.30;49.68
68634;BME280;55625;47.072;22.192;2023-07-20T11:26:05;99039.84;;;31.48;48.43
68634;BME280;55625;47.072;22.192;2023-07-20T11:28:31;99033.22;;;31.48;47.01
68634;BME280;55625;47.072;22.192;2023-07-20T11:30:56;99037.84;;;31.22;47.85
68634;BME280;55625;47.072;22.192;2023-07-20T11:33:22;99033.00;;;30.98;47.68
68634;BME280;55625;47.072;22.192;2023-07-20T11:35:49;99028.59;;;31.45;49.69
68634;BME280;55625;47.072;22.192;2023-07-20T11:38:19;99023.34;;;31.92;46.15
68634;BME280;55625;47.072;22.192;2023-07-20T11:40:45;99023.38;;;32.32;49.62
68634;BME280;55625;47.072;22.192;2023-07-20T11:43:15;99026.34;;;32.13;47.32
68634;BME280;55625;47.072;22.192;2023-07-20T11:45:41;99018.88;;;31.62;47.85
68634;BME280;55625;47.072;22.192;2023-07-20T11:48:07;99019.59;;;31.14;49.08
68634;BME280;55625;47.072;22.192;2023-07-20T11:50:39;99017.28;;;31.03;50.36
68634;BME280;55625;47.072;22.192;2023-07-20T11:53:05;99010.19;;;31.06;47.69
68634;BME280;55625;47.072;22.192;2023-07-20T11:55:32;98998.19;;;31.40;47.49
68634;BME280;55625;47.072;22.192;2023-07-20T11:58:08;98992.44;;;31.91;48.44
68634;BME280;55625;47.072;22.192;2023-07-20T12:00:37;99000.38;;;32.19;41.59
68634;BME280;55625;47.072;22.192;2023-07-20T12:03:06;99003.66;;;32.54;40.66
68634;BME280;55625;47.072;22.192;2023-07-20T12:05:38;99001.28;;;32.62;41.03
68634;BME280;55625;47.072;22.192;2023-07-20T12:08:04;98995.63;;;32.55;38.53
68634;BME280;55625;47.072;22.192;2023-07-20T12:10:30;98989.59;;;32.53;39.99
68634;BME280;55625;47.072;22.192;2023-07-20T12:13:03;98983.47;;;32.70;39.05
68634;BME280;55625;47.072;22.192;2023-07-20T12:15:29;98984.91;;;32.90;40.36
68634;BME280;55625;47.072;22.192;2023-07-20T12:18:00;98992.22;;;33.11;37.87
68634;BME280;55625;47.072;22.192;2023-07-20T12:20:29;98975.09;;;33.19;35.40
68634;BME280;55625;47.072;22.192;2023-07-20T12:23:21;98987.03;;;33.42;37.63
68634;BME280;55625;47.072;22.192;2023-07-20T12:25:47;98976.53;;;33.39;35.91
68634;BME280;55625;47.072;22.192;2023-07-20T12:28:19;98986.78;;;33.28;35.54
68634;BME280;55625;47.072;22.192;2023-07-20T12:30:46;98969.78;;;33.27;37.11
68634;BME280;55625;47.072;22.192;2023-07-20T12:33:13;98974.84;;;33.15;37.76
68634;BME280;55625;47.072;22.192;2023-07-20T12:35:43;98957.53;;;33.09;35.59
68634;BME280;55625;47.072;22.192;2023-07-20T12:38:09;98960.06;;;32.82;35.97
68634;BME280;55625;47.072;22.192;2023-07-20T12:40:35;98962.13;;;32.38;36.79
68634;BME280;55625;47.072;22.192;2023-07-20T12:43:01;98968.16;;;32.40;36.04
68634;BME280;55625;47.072;22.192;2023-07-20T12:45:27;98971.06;;;32.50;35.16
68634;BME280;55625;47.072;22.192;2023-07-20T12:47:53;98956.19;;;32.17;34.82
68634;BME280;55625;47.072;22.192;2023-07-20T12:50:19;98963.56;;;31.87;43.81
68634;BME280;55625;47.072;22.192;2023-07-20T12:52:45;98969.00;;;31.71;45.64
68634;BME280;55625;47.072;22.192;2023-07-20T12:55:11;98962.03;;;31.76;44.89
68634;BME280;55625;47.072;22.192;2023-07-20T12:57:37;98955.88;;;32.13;44.73
68634;BME280;55625;47.072;22.192;2023-07-20T13:00:06;98952.94;;;32.75;33.96
68634;BME280;55625;47.072;22.192;2023-07-20T13:02:33;98942.06;;;33.09;32.47
68634;BME280;55625;47.072;22.192;2023-07-20T13:04:59;98950.31;;;33.22;32.22
68634;BME280;55625;47.072;22.192;2023-07-20T13:07:37;98947.63;;;33.47;31.39
68634;BME280;55625;47.072;22.192;2023-07-20T13:10:04;98941.25;;;33.51;30.18
68634;BME280;55625;47.072;22.192;2023-07-20T13:12:32;98956.06;;;33.41;31.12
68634;BME280;55625;47.072;22.192;2023-07-20T13:14:59;98950.88;;;33.63;30.89
68634;BME280;55625;47.072;22.192;2023-07-20T13:17:27;98959.22;;;33.33;30.21
68634;BME280;55625;47.072;22.192;2023-07-20T13:19:54;98958.22;;;33.19;30.99
68634;BME280;55625;47.072;22.192;2023-07-20T13:22:19;98955.38;;;33.10;31.64
68634;BME280;55625;47.072;22.192;2023-07-20T13:24:46;98954.66;;;33.21;30.65
68634;BME280;55625;47.072;22.192;2023-07-20T13:27:15;98949.53;;;33.21;31.61
68634;BME280;55625;47.072;22.192;2023-07-20T13:29:41;98953.66;;;33.49;30.98
68634;BME280;55625;47.072;22.192;2023-07-20T13:32:07;98948.69;;;33.63;30.95
68634;BME280;55625;47.072;22.192;2023-07-20T13:34:33;98956.81;;;33.75;30.56
68634;BME280;55625;47.072;22.192;2023-07-20T13:37:00;98946.66;;;33.66;29.63
68634;BME280;55625;47.072;22.192;2023-07-20T13:39:26;98958.41;;;33.54;30.00
68634;BME280;55625;47.072;22.192;2023-07-20T13:41:53;98948.16;;;33.55;29.38
68634;BME280;55625;47.072;22.192;2023-07-20T13:44:22;98958.78;;;33.49;30.31
68634;BME280;55625;47.072;22.192;2023-07-20T13:46:49;98958.41;;;33.54;30.94
68634;BME280;55625;47.072;22.192;2023-07-20T13:49:15;98954.44;;;33.61;28.79
68634;BME280;55625;47.072;22.192;2023-07-20T13:51:42;98962.25;;;33.57;29.02
68634;BME280;55625;47.072;22.192;2023-07-20T13:54:08;98973.72;;;33.20;29.92
68634;BME280;55625;47.072;22.192;2023-07-20T13:56:35;98968.00;;;32.38;31.17
68634;BME280;55625;47.072;22.192;2023-07-20T13:59:01;98966.81;;;32.32;31.78
68634;BME280;55625;47.072;22.192;2023-07-20T14:01:26;98976.38;;;32.32;31.36
68634;BME280;55625;47.072;22.192;2023-07-20T14:03:55;98964.97;;;32.27;30.50
68634;BME280;55625;47.072;22.192;2023-07-20T14:06:21;98958.34;;;32.26;30.73
68634;BME280;55625;47.072;22.192;2023-07-20T14:08:47;98967.22;;;31.97;31.42
68634;BME280;55625;47.072;22.192;2023-07-20T14:11:14;98965.22;;;32.00;32.90
68634;BME280;55625;47.072;22.192;2023-07-20T14:13:40;98964.84;;;32.15;32.43
68634;BME280;55625;47.072;22.192;2023-07-20T14:16:06;98957.16;;;32.41;31.82
68634;BME280;55625;47.072;22.192;2023-07-20T14:18:32;98958.91;;;32.65;29.21
68634;BME280;55625;47.072;22.192;2023-07-20T14:20:58;98957.63;;;32.68;29.65
68634;BME280;55625;47.072;22.192;2023-07-20T14:23:23;98959.66;;;32.66;29.89
68634;BME280;55625;47.072;22.192;2023-07-20T14:25:49;98959.97;;;32.39;29.75
68634;BME280;55625;47.072;22.192;2023-07-20T14:28:15;98957.84;;;32.30;30.33
68634;BME280;55625;47.072;22.192;2023-07-20T14:30:41;98964.13;;;32.46;30.85
68634;BME280;55625;47.072;22.192;2023-07-20T14:33:07;98967.56;;;32.63;28.78
68634;BME280;55625;47.072;22.192;2023-07-20T14:35:34;98968.25;;;32.52;28.93
68634;BME280;55625;47.072;22.192;2023-07-20T14:38:00;98963.44;;;32.57;28.95
68634;BME280;55625;47.072;22.192;2023-07-20T14:40:26;98962.75;;;32.68;28.58
68634;BME280;55625;47.072;22.192;2023-07-20T14:42:52;98973.16;;;32.59;28.91
68634;BME280;55625;47.072;22.192;2023-07-20T14:45:18;98967.22;;;32.48;29.43
68634;BME280;55625;47.072;22.192;2023-07-20T14:47:44;98964.97;;;32.27;29.89
68634;BME280;55625;47.072;22.192;2023-07-20T14:50:11;98963.84;;;31.91;30.54
68634;BME280;55625;47.072;22.192;2023-07-20T14:52:37;98958.47;;;31.88;30.78
68634;BME280;55625;47.072;22.192;2023-07-20T14:55:04;98965.56;;;31.85;31.09
68634;BME280;55625;47.072;22.192;2023-07-20T14:57:30;98966.75;;;32.01;29.36
68634;BME280;55625;47.072;22.192;2023-07-20T14:59:56;98960.91;;;31.81;29.18
68634;BME280;55625;47.072;22.192;2023-07-20T15:02:21;98965.72;;;31.67;29.89
68634;BME280;55625;47.072;22.192;2023-07-20T15:04:49;98975.31;;;31.58;30.06
68634;BME280;55625;47.072;22.192;2023-07-20T15:07:18;98969.16;;;31.54;28.10
68634;BME280;55625;47.072;22.192;2023-07-20T15:09:44;98971.47;;;31.36;28.26
68634;BME280;55625;47.072;22.192;2023-07-20T15:12:10;98964.81;;;31.45;28.17
68634;BME280;55625;47.072;22.192;2023-07-20T15:14:40;98973.78;;;31.38;28.78
68634;BME280;55625;47.072;22.192;2023-07-20T15:17:10;98979.06;;;31.30;29.29
68634;BME280;55625;47.072;22.192;2023-07-20T15:19:36;98982.59;;;31.18;27.58
68634;BME280;55625;47.072;22.192;2023-07-20T15:22:04;98984.47;;;31.24;28.04
68634;BME280;55625;47.072;22.192;2023-07-20T15:24:30;98976.88;;;31.20;27.78
68634;BME280;55625;47.072;22.192;2023-07-20T15:26:56;98985.38;;;31.16;28.16
68634;BME280;55625;47.072;22.192;2023-07-20T15:29:23;98985.66;;;31.01;28.10
68634;BME280;55625;47.072;22.192;2023-07-20T15:31:49;98981.00;;;31.08;27.41
68634;BME280;55625;47.072;22.192;2023-07-20T15:34:15;98982.53;;;30.89;28.41
68634;BME280;55625;47.072;22.192;2023-07-20T15:36:41;98985.50;;;30.99;28.04
68634;BME280;55625;47.072;22.192;2023-07-20T15:39:08;98987.63;;;30.89;27.47
68634;BME280;55625;47.072;22.192;2023-07-20T15:41:34;98991.31;;;30.89;28.39
68634;BME280;55625;47.072;22.192;2023-07-20T15:44:00;98999.84;;;30.58;28.01
68634;BME280;55625;47.072;22.192;2023-07-20T15:49:05;99000.47;;;30.57;28.18
68634;BME280;55625;47.072;22.192;2023-07-20T15:51:32;99003.75;;;30.24;28.81
68634;BME280;55625;47.072;22.192;2023-07-20T15:53:58;99000.09;;;30.34;29.15
68634;BME280;55625;47.072;22.192;2023-07-20T15:56:24;99004.06;;;30.28;29.94
68634;BME280;55625;47.072;22.192;2023-07-20T15:58:50;99005.03;;;30.31;30.59
68634;BME280;55625;47.072;22.192;2023-07-20T16:01:15;99006.06;;;30.26;30.44
68634;BME280;55625;47.072;22.192;2023-07-20T16:03:42;99003.66;;;30.05;30.99
68634;BME280;55625;47.072;22.192;2023-07-20T16:06:07;99012.56;;;29.80;33.34
68634;BME280;55625;47.072;22.192;2023-07-20T16:08:34;99015.56;;;29.46;37.46
68634;BME280;55625;47.072;22.192;2023-07-20T16:11:00;99021.44;;;28.86;40.77
68634;BME280;55625;47.072;22.192;2023-07-20T16:13:25;99027.63;;;28.40;42.18
68634;BME280;55625;47.072;22.192;2023-07-20T16:15:52;99031.16;;;28.06;43.35
68634;BME280;55625;47.072;22.192;2023-07-20T16:18:18;99040.81;;;27.84;43.96
68634;BME280;55625;47.072;22.192;2023-07-20T16:20:44;99041.66;;;27.69;44.29
68634;BME280;55625;47.072;22.192;2023-07-20T16:23:11;99033.53;;;27.52;44.38
68634;BME280;55625;47.072;22.192;2023-07-20T16:25:37;99042.47;;;27.54;44.69
68634;BME280;55625;47.072;22.192;2023-07-20T16:28:03;99047.38;;;27.44;44.77
68634;BME280;55625;47.072;22.192;2023-07-20T16:30:32;99056.34;;;27.39;45.18
68634;BME280;55625;47.072;22.192;2023-07-20T16:32:58;99056.97;;;27.30;45.60
68634;BME280;55625;47.072;22.192;2023-07-20T16:35:23;99053.84;;;27.20;46.07
68634;BME280;55625;47.072;22.192;2023-07-20T16:37:49;99054.28;;;27.09;46.77
68634;BME280;55625;47.072;22.192;2023-07-20T16:40:15;99054.88;;;27.07;47.26
68634;BME280;55625;47.072;22.192;2023-07-20T16:42:42;99062.25;;;26.78;48.10
68634;BME280;55625;47.072;22.192;2023-07-20T16:45:08;99070.00;;;26.75;48.29
68634;BME280;55625;47.072;22.192;2023-07-20T16:47:34;99065.75;;;26.76;47.99
68634;BME280;55625;47.072;22.192;2023-07-20T16:50:00;99068.63;;;26.61;49.17
68634;BME280;55625;47.072;22.192;2023-07-20T16:52:27;99059.53;;;26.49;49.00
68634;BME280;55625;47.072;22.192;2023-07-20T16:54:53;99063.59;;;26.46;49.46
68634;BME280;55625;47.072;22.192;2023-07-20T16:57:20;99065.34;;;26.42;49.73
68634;BME280;55625;47.072;22.192;2023-07-20T16:59:47;99059.72;;;26.36;50.40
68634;BME280;55625;47.072;22.192;2023-07-20T17:02:14;99063.94;;;26.27;51.09
68634;BME280;55625;47.072;22.192;2023-07-20T17:04:39;99063.53;;;26.23;50.93
68634;BME280;55625;47.072;22.192;2023-07-20T17:07:06;99065.84;;;26.17;51.23
68634;BME280;55625;47.072;22.192;2023-07-20T17:09:32;99072.44;;;26.10;51.82
68634;BME280;55625;47.072;22.192;2023-07-20T17:11:59;99064.69;;;26.05;52.66
68634;BME280;55625;47.072;22.192;2023-07-20T17:14:26;99071.22;;;25.98;52.72
68634;BME280;55625;47.072;22.192;2023-07-20T17:16:52;99071.81;;;25.96;53.11
68634;BME280;55625;47.072;22.192;2023-07-20T17:19:18;99069.84;;;25.91;53.34
68634;BME280;55625;47.072;22.192;2023-07-20T17:21:44;99070.44;;;25.90;53.05
68634;BME280;55625;47.072;22.192;2023-07-20T17:24:10;99073.34;;;25.90;53.43
68634;BME280;55625;47.072;22.192;2023-07-20T17:26:38;99081.66;;;25.86;53.71
68634;BME280;55625;47.072;22.192;2023-07-20T17:29:04;99077.38;;;25.79;54.25
68634;BME280;55625;47.072;22.192;2023-07-20T17:31:30;99079.28;;;25.69;54.34
68634;BME280;55625;47.072;22.192;2023-07-20T17:33:57;99078.44;;;25.61;55.00
68634;BME280;55625;47.072;22.192;2023-07-20T17:36:25;99080.75;;;25.55;55.33
68634;BME280;55625;47.072;22.192;2023-07-20T17:38:51;99082.47;;;25.50;55.62
68634;BME280;55625;47.072;22.192;2023-07-20T17:41:17;99072.56;;;25.46;56.69
68634;BME280;55625;47.072;22.192;2023-07-20T17:43:43;99084.31;;;25.40;56.66
68634;BME280;55625;47.072;22.192;2023-07-20T17:46:09;99083.91;;;25.36;56.34
68634;BME280;55625;47.072;22.192;2023-07-20T17:48:35;99096.13;;;25.34;56.57
68634;BME280;55625;47.072;22.192;2023-07-20T17:51:01;99087.97;;;25.33;56.05
68634;BME280;55625;47.072;22.192;2023-07-20T17:53:27;99087.56;;;25.29;56.81
68634;BME280;55625;47.072;22.192;2023-07-20T17:55:52;99099.56;;;25.25;56.62
68634;BME280;55625;47.072;22.192;2023-07-20T17:58:18;99101.28;;;25.21;57.29
68634;BME280;55625;47.072;22.192;2023-07-20T18:00:44;99106.84;;;25.11;56.96
68634;BME280;55625;47.072;22.192;2023-07-20T18:03:10;99096.69;;;25.04;58.55
68634;BME280;55625;47.072;22.192;2023-07-20T18:05:37;99100.88;;;24.96;58.60
68634;BME280;55625;47.072;22.192;2023-07-20T18:08:03;99099.47;;;24.89;58.07
68634;BME280;55625;47.072;22.192;2023-07-20T18:10:29;99106.22;;;24.84;58.07
68634;BME280;55625;47.072;22.192;2023-07-20T18:12:55;99111.38;;;24.78;59.82
68634;BME280;55625;47.072;22.192;2023-07-20T18:15:21;99110.53;;;24.70;59.84
68634;BME280;55625;47.072;22.192;2023-07-20T18:17:47;99112.38;;;24.60;59.96